sensor_id;sensor_type;location;lat;lon;timestamp;P1;durP1;ratioP1;P2;durP2;ratioP2
22334;SDS011;11335;43.848;25.958;2023-06-10T00:01:37;11.48;;;6.32;;
22334;SDS011;11335;43.848;25.958;2023-06-10T00:04:23;10.23;;;6.82;;
22334;SDS011;11335;43.848;25.958;2023-06-10T00:07:09;12.05;;;6.72;;
22334;SDS011;11335;43.848;25.958;2023-06-10T00:09:54;10.65;;;6.40;;
22334;SDS011;11335;43.848;25.958;2023-06-10T00:12:40;18.13;;;7.13;;
22334;SDS011;11335;43.848;25.958;2023-06-10T00:15:27;9.48;;;6.50;;
22334;SDS011;11335;43.848;25.958;2023-06-10T00:18:13;13.50;;;6.90;;
22334;SDS011;11335;43.848;25.958;2023-06-10T00:20:59;11.70;;;6.22;;
22334;SDS011;11335;43.848;25.958;2023-06-10T00:23:49;9.80;;;5.70;;
22334;SDS011;11335;43.848;25.958;2023-06-10T00:26:35;7.82;;;5.72;;
22334;SDS011;11335;43.848;25.958;2023-06-10T00:29:21;7.47;;;5.53;;
22334;SDS011;11335;43.848;25.958;2023-06-10T00:32:06;7.95;;;6.05;;
22334;SDS011;11335;43.848;25.958;2023-06-10T00:34:53;10.02;;;5.97;;
22334;SDS011;11335;43.848;25.958;2023-06-10T00:37:38;8.43;;;5.82;;
22334;SDS011;11335;43.848;25.958;2023-06-10T00:40:24;10.02;;;5.35;;
22334;SDS011;11335;43.848;25.958;2023-06-10T00:43:10;13.98;;;6.10;;
22334;SDS011;11335;43.848;25.958;2023-06-10T00:45:55;7.53;;;5.28;;
22334;SDS011;11335;43.848;25.958;2023-06-10T00:48:42;8.60;;;5.68;;
22334;SDS011;11335;43.848;25.958;2023-06-10T00:51:29;7.55;;;5.65;;
22334;SDS011;11335;43.848;25.958;2023-06-10T00:54:15;8.60;;;5.45;;
22334;SDS011;11335;43.848;25.958;2023-06-10T00:57:01;7.00;;;5.32;;
22334;SDS011;11335;43.848;25.958;2023-06-10T00:59:48;9.30;;;5.65;;
22334;SDS011;11335;43.848;25.958;2023-06-10T01:02:34;9.65;;;5.75;;
22334;SDS011;11335;43.848;25.958;2023-06-10T01:05:20;8.85;;;5.60;;
22334;SDS011;11335;43.848;25.958;2023-06-10T01:11:00;8.02;;;5.43;;
22334;SDS011;11335;43.848;25.958;2023-06-10T01:13:50;8.73;;;5.55;;
22334;SDS011;11335;43.848;25.958;2023-06-10T01:16:36;11.00;;;6.00;;
22334;SDS011;11335;43.848;25.958;2023-06-10T01:19:22;8.35;;;5.40;;
22334;SDS011;11335;43.848;25.958;2023-06-10T01:22:09;8.50;;;5.55;;
22334;SDS011;11335;43.848;25.958;2023-06-10T01:24:55;9.70;;;5.57;;
22334;SDS011;11335;43.848;25.958;2023-06-10T01:27:44;10.18;;;5.90;;
22334;SDS011;11335;43.848;25.958;2023-06-10T01:33:46;9.48;;;5.60;;
22334;SDS011;11335;43.848;25.958;2023-06-10T01:36:34;9.15;;;5.47;;
22334;SDS011;11335;43.848;25.958;2023-06-10T01:39:22;8.27;;;5.28;;
22334;SDS011;11335;43.848;25.958;2023-06-10T01:42:10;7.57;;;5.45;;
22334;SDS011;11335;43.848;25.958;2023-06-10T01:44:57;9.65;;;5.50;;
22334;SDS011;11335;43.848;25.958;2023-06-10T01:47:43;8.00;;;5.18;;
22334;SDS011;11335;43.848;25.958;2023-06-10T01:50:29;9.27;;;5.70;;
22334;SDS011;11335;43.848;25.958;2023-06-10T01:53:15;8.98;;;5.25;;
22334;SDS011;11335;43.848;25.958;2023-06-10T01:56:01;9.45;;;5.95;;
22334;SDS011;11335;43.848;25.958;2023-06-10T01:58:46;7.72;;;5.32;;
22334;SDS011;11335;43.848;25.958;2023-06-10T02:01:33;7.97;;;5.97;;
22334;SDS011;11335;43.848;25.958;2023-06-10T02:04:18;9.77;;;5.25;;
22334;SDS011;11335;43.848;25.958;2023-06-10T02:07:04;7.05;;;5.30;;
22334;SDS011;11335;43.848;25.958;2023-06-10T02:09:51;7.78;;;5.18;;
22334;SDS011;11335;43.848;25.958;2023-06-10T02:12:36;8.43;;;4.88;;
22334;SDS011;11335;43.848;25.958;2023-06-10T02:15:22;9.30;;;4.80;;
22334;SDS011;11335;43.848;25.958;2023-06-10T02:18:08;5.90;;;4.72;;
22334;SDS011;11335;43.848;25.958;2023-06-10T02:20:54;7.22;;;5.18;;
22334;SDS011;11335;43.848;25.958;2023-06-10T02:23:40;6.03;;;4.80;;
22334;SDS011;11335;43.848;25.958;2023-06-10T02:26:26;7.30;;;4.60;;
22334;SDS011;11335;43.848;25.958;2023-06-10T02:29:12;9.23;;;5.15;;
22334;SDS011;11335;43.848;25.958;2023-06-10T02:31:57;9.73;;;4.93;;
22334;SDS011;11335;43.848;25.958;2023-06-10T02:34:43;7.30;;;4.85;;
22334;SDS011;11335;43.848;25.958;2023-06-10T02:37:29;8.02;;;4.80;;
22334;SDS011;11335;43.848;25.958;2023-06-10T02:40:15;7.22;;;5.20;;
22334;SDS011;11335;43.848;25.958;2023-06-10T02:43:00;7.65;;;4.68;;
22334;SDS011;11335;43.848;25.958;2023-06-10T02:45:46;8.15;;;4.90;;
22334;SDS011;11335;43.848;25.958;2023-06-10T02:48:38;8.15;;;5.22;;
22334;SDS011;11335;43.848;25.958;2023-06-10T02:51:27;8.95;;;4.90;;
22334;SDS011;11335;43.848;25.958;2023-06-10T02:54:12;9.90;;;5.85;;
22334;SDS011;11335;43.848;25.958;2023-06-10T02:56:58;8.48;;;4.78;;
22334;SDS011;11335;43.848;25.958;2023-06-10T02:59:44;8.50;;;5.55;;
22334;SDS011;11335;43.848;25.958;2023-06-10T03:02:30;9.52;;;6.60;;
22334;SDS011;11335;43.848;25.958;2023-06-10T03:05:16;11.32;;;7.65;;
22334;SDS011;11335;43.848;25.958;2023-06-10T03:08:02;12.18;;;7.93;;
22334;SDS011;11335;43.848;25.958;2023-06-10T03:10:48;13.30;;;9.25;;
22334;SDS011;11335;43.848;25.958;2023-06-10T03:13:34;13.77;;;8.70;;
22334;SDS011;11335;43.848;25.958;2023-06-10T03:16:20;17.10;;;10.77;;
22334;SDS011;11335;43.848;25.958;2023-06-10T03:19:06;19.83;;;10.48;;
22334;SDS011;11335;43.848;25.958;2023-06-10T03:25:14;18.15;;;10.40;;
22334;SDS011;11335;43.848;25.958;2023-06-10T03:28:00;15.30;;;10.38;;
22334;SDS011;11335;43.848;25.958;2023-06-10T03:30:46;17.08;;;10.02;;
22334;SDS011;11335;43.848;25.958;2023-06-10T03:33:32;16.95;;;9.68;;
22334;SDS011;11335;43.848;25.958;2023-06-10T03:36:18;16.73;;;9.50;;
22334;SDS011;11335;43.848;25.958;2023-06-10T03:39:03;14.63;;;9.32;;
22334;SDS011;11335;43.848;25.958;2023-06-10T03:41:50;15.80;;;9.38;;
22334;SDS011;11335;43.848;25.958;2023-06-10T03:44:36;14.38;;;8.50;;
22334;SDS011;11335;43.848;25.958;2023-06-10T03:47:23;12.70;;;8.00;;
22334;SDS011;11335;43.848;25.958;2023-06-10T03:50:09;16.50;;;8.18;;
22334;SDS011;11335;43.848;25.958;2023-06-10T03:52:55;11.48;;;7.53;;
22334;SDS011;11335;43.848;25.958;2023-06-10T03:55:41;11.50;;;7.85;;
22334;SDS011;11335;43.848;25.958;2023-06-10T03:58:26;13.82;;;7.65;;
22334;SDS011;11335;43.848;25.958;2023-06-10T04:01:12;13.38;;;8.10;;
22334;SDS011;11335;43.848;25.958;2023-06-10T04:04:03;12.77;;;6.95;;
22334;SDS011;11335;43.848;25.958;2023-06-10T04:06:49;10.80;;;7.28;;
22334;SDS011;11335;43.848;25.958;2023-06-10T04:09:35;13.73;;;7.07;;
22334;SDS011;11335;43.848;25.958;2023-06-10T04:12:21;12.23;;;7.03;;
22334;SDS011;11335;43.848;25.958;2023-06-10T04:15:07;14.60;;;7.13;;
22334;SDS011;11335;43.848;25.958;2023-06-10T04:17:53;16.70;;;6.97;;
22334;SDS011;11335;43.848;25.958;2023-06-10T04:20:39;19.35;;;6.82;;
22334;SDS011;11335;43.848;25.958;2023-06-10T04:23:24;14.75;;;7.05;;
22334;SDS011;11335;43.848;25.958;2023-06-10T04:26:11;10.50;;;7.15;;
22334;SDS011;11335;43.848;25.958;2023-06-10T04:29:00;10.68;;;7.03;;
22334;SDS011;11335;43.848;25.958;2023-06-10T04:31:46;12.35;;;7.20;;
22334;SDS011;11335;43.848;25.958;2023-06-10T04:34:32;13.98;;;7.18;;
22334;SDS011;11335;43.848;25.958;2023-06-10T04:37:21;12.23;;;6.97;;
22334;SDS011;11335;43.848;25.958;2023-06-10T04:40:08;13.15;;;6.95;;
22334;SDS011;11335;43.848;25.958;2023-06-10T04:42:54;12.20;;;7.00;;
22334;SDS011;11335;43.848;25.958;2023-06-10T04:45:40;15.93;;;7.53;;
22334;SDS011;11335;43.848;25.958;2023-06-10T04:48:25;11.82;;;7.53;;
22334;SDS011;11335;43.848;25.958;2023-06-10T04:51:11;15.70;;;7.55;;
22334;SDS011;11335;43.848;25.958;2023-06-10T04:53:57;12.00;;;6.97;;
22334;SDS011;11335;43.848;25.958;2023-06-10T04:56:43;14.50;;;7.32;;
22334;SDS011;11335;43.848;25.958;2023-06-10T04:59:29;15.73;;;7.32;;
22334;SDS011;11335;43.848;25.958;2023-06-10T05:02:15;15.45;;;7.90;;
22334;SDS011;11335;43.848;25.958;2023-06-10T05:05:01;10.15;;;7.07;;
22334;SDS011;11335;43.848;25.958;2023-06-10T05:07:47;11.25;;;7.57;;
22334;SDS011;11335;43.848;25.958;2023-06-10T05:10:32;9.88;;;7.25;;
22334;SDS011;11335;43.848;25.958;2023-06-10T05:13:19;10.18;;;7.28;;
22334;SDS011;11335;43.848;25.958;2023-06-10T05:16:05;10.63;;;7.22;;
22334;SDS011;11335;43.848;25.958;2023-06-10T05:18:51;12.48;;;7.65;;
22334;SDS011;11335;43.848;25.958;2023-06-10T05:21:37;16.95;;;7.47;;
22334;SDS011;11335;43.848;25.958;2023-06-10T05:24:23;10.63;;;6.95;;
22334;SDS011;11335;43.848;25.958;2023-06-10T05:27:09;11.25;;;7.05;;
22334;SDS011;11335;43.848;25.958;2023-06-10T05:29:55;11.70;;;7.63;;
22334;SDS011;11335;43.848;25.958;2023-06-10T05:32:41;9.27;;;7.05;;
22334;SDS011;11335;43.848;25.958;2023-06-10T05:35:27;14.27;;;7.47;;
22334;SDS011;11335;43.848;25.958;2023-06-10T05:38:13;11.95;;;7.60;;
22334;SDS011;11335;43.848;25.958;2023-06-10T05:40:58;10.23;;;7.10;;
22334;SDS011;11335;43.848;25.958;2023-06-10T05:43:44;11.98;;;7.72;;
22334;SDS011;11335;43.848;25.958;2023-06-10T05:46:30;13.95;;;7.40;;
22334;SDS011;11335;43.848;25.958;2023-06-10T05:49:16;12.20;;;6.95;;
22334;SDS011;11335;43.848;25.958;2023-06-10T05:52:02;9.40;;;6.65;;
22334;SDS011;11335;43.848;25.958;2023-06-10T05:54:48;10.60;;;6.65;;
22334;SDS011;11335;43.848;25.958;2023-06-10T05:57:35;10.30;;;6.78;;
22334;SDS011;11335;43.848;25.958;2023-06-10T06:00:20;9.95;;;6.70;;
22334;SDS011;11335;43.848;25.958;2023-06-10T06:03:07;10.60;;;7.05;;
22334;SDS011;11335;43.848;25.958;2023-06-10T06:05:56;9.57;;;6.45;;
22334;SDS011;11335;43.848;25.958;2023-06-10T06:08:41;8.27;;;6.47;;
22334;SDS011;11335;43.848;25.958;2023-06-10T06:11:27;9.77;;;6.55;;
22334;SDS011;11335;43.848;25.958;2023-06-10T06:14:13;15.63;;;6.93;;
22334;SDS011;11335;43.848;25.958;2023-06-10T06:16:59;10.70;;;6.28;;
22334;SDS011;11335;43.848;25.958;2023-06-10T06:19:44;10.32;;;6.80;;
22334;SDS011;11335;43.848;25.958;2023-06-10T06:22:32;12.50;;;7.18;;
22334;SDS011;11335;43.848;25.958;2023-06-10T06:25:18;10.95;;;6.97;;
22334;SDS011;11335;43.848;25.958;2023-06-10T06:28:07;16.20;;;7.05;;
22334;SDS011;11335;43.848;25.958;2023-06-10T06:30:55;11.18;;;6.18;;
22334;SDS011;11335;43.848;25.958;2023-06-10T06:33:41;14.90;;;6.78;;
22334;SDS011;11335;43.848;25.958;2023-06-10T06:36:27;16.23;;;6.07;;
22334;SDS011;11335;43.848;25.958;2023-06-10T06:39:12;14.82;;;6.60;;
22334;SDS011;11335;43.848;25.958;2023-06-10T06:41:59;21.42;;;7.65;;
22334;SDS011;11335;43.848;25.958;2023-06-10T06:44:45;9.88;;;6.35;;
22334;SDS011;11335;43.848;25.958;2023-06-10T06:47:31;11.32;;;6.10;;
22334;SDS011;11335;43.848;25.958;2023-06-10T06:50:17;11.43;;;7.10;;
22334;SDS011;11335;43.848;25.958;2023-06-10T06:53:03;7.72;;;5.82;;
22334;SDS011;11335;43.848;25.958;2023-06-10T06:55:49;10.77;;;6.28;;
22334;SDS011;11335;43.848;25.958;2023-06-10T06:58:35;8.98;;;6.00;;
22334;SDS011;11335;43.848;25.958;2023-06-10T07:01:20;9.82;;;6.10;;
22334;SDS011;11335;43.848;25.958;2023-06-10T07:04:06;8.70;;;6.40;;
22334;SDS011;11335;43.848;25.958;2023-06-10T07:06:52;10.15;;;6.13;;
22334;SDS011;11335;43.848;25.958;2023-06-10T07:09:37;10.27;;;6.45;;
22334;SDS011;11335;43.848;25.958;2023-06-10T07:12:23;8.52;;;6.20;;
22334;SDS011;11335;43.848;25.958;2023-06-10T07:15:09;10.30;;;6.22;;
22334;SDS011;11335;43.848;25.958;2023-06-10T07:17:55;9.60;;;6.53;;
22334;SDS011;11335;43.848;25.958;2023-06-10T07:20:41;10.02;;;6.95;;
22334;SDS011;11335;43.848;25.958;2023-06-10T07:23:26;10.02;;;6.65;;
22334;SDS011;11335;43.848;25.958;2023-06-10T07:26:12;9.02;;;5.78;;
22334;SDS011;11335;43.848;25.958;2023-06-10T07:28:58;9.45;;;6.40;;
22334;SDS011;11335;43.848;25.958;2023-06-10T07:31:44;22.02;;;6.75;;
22334;SDS011;11335;43.848;25.958;2023-06-10T07:34:30;10.07;;;6.53;;
22334;SDS011;11335;43.848;25.958;2023-06-10T07:37:15;9.90;;;7.30;;
22334;SDS011;11335;43.848;25.958;2023-06-10T07:40:01;10.55;;;7.00;;
22334;SDS011;11335;43.848;25.958;2023-06-10T07:42:47;10.00;;;6.65;;
22334;SDS011;11335;43.848;25.958;2023-06-10T07:45:33;9.40;;;6.95;;
22334;SDS011;11335;43.848;25.958;2023-06-10T07:48:18;12.85;;;7.25;;
22334;SDS011;11335;43.848;25.958;2023-06-10T07:51:04;10.27;;;6.93;;
22334;SDS011;11335;43.848;25.958;2023-06-10T07:53:50;12.27;;;6.88;;
22334;SDS011;11335;43.848;25.958;2023-06-10T07:56:36;8.82;;;6.85;;
22334;SDS011;11335;43.848;25.958;2023-06-10T07:59:21;9.57;;;6.45;;
22334;SDS011;11335;43.848;25.958;2023-06-10T08:02:07;8.77;;;6.65;;
22334;SDS011;11335;43.848;25.958;2023-06-10T08:04:53;11.45;;;7.28;;
22334;SDS011;11335;43.848;25.958;2023-06-10T08:07:39;11.50;;;7.35;;
22334;SDS011;11335;43.848;25.958;2023-06-10T08:10:25;14.43;;;6.93;;
22334;SDS011;11335;43.848;25.958;2023-06-10T08:13:11;10.25;;;6.30;;
22334;SDS011;11335;43.848;25.958;2023-06-10T08:15:56;8.95;;;6.18;;
22334;SDS011;11335;43.848;25.958;2023-06-10T08:18:42;12.07;;;6.80;;
22334;SDS011;11335;43.848;25.958;2023-06-10T08:21:28;10.93;;;6.47;;
22334;SDS011;11335;43.848;25.958;2023-06-10T08:24:14;10.90;;;7.18;;
22334;SDS011;11335;43.848;25.958;2023-06-10T08:27:01;11.85;;;7.53;;
22334;SDS011;11335;43.848;25.958;2023-06-10T08:29:47;9.80;;;7.05;;
22334;SDS011;11335;43.848;25.958;2023-06-10T08:32:33;14.73;;;7.72;;
22334;SDS011;11335;43.848;25.958;2023-06-10T08:35:18;18.33;;;7.82;;
22334;SDS011;11335;43.848;25.958;2023-06-10T08:38:04;14.95;;;7.70;;
22334;SDS011;11335;43.848;25.958;2023-06-10T08:40:50;12.38;;;7.68;;
22334;SDS011;11335;43.848;25.958;2023-06-10T08:43:54;13.05;;;7.85;;
22334;SDS011;11335;43.848;25.958;2023-06-10T08:46:47;19.77;;;8.60;;
22334;SDS011;11335;43.848;25.958;2023-06-10T08:49:36;14.05;;;8.35;;
22334;SDS011;11335;43.848;25.958;2023-06-10T08:52:26;12.43;;;7.90;;
22334;SDS011;11335;43.848;25.958;2023-06-10T08:55:15;14.23;;;8.43;;
22334;SDS011;11335;43.848;25.958;2023-06-10T08:58:05;10.52;;;7.80;;
22334;SDS011;11335;43.848;25.958;2023-06-10T09:00:51;17.08;;;8.80;;
22334;SDS011;11335;43.848;25.958;2023-06-10T09:03:38;18.92;;;8.75;;
22334;SDS011;11335;43.848;25.958;2023-06-10T09:06:24;13.38;;;8.60;;
22334;SDS011;11335;43.848;25.958;2023-06-10T09:09:11;14.07;;;8.40;;
22334;SDS011;11335;43.848;25.958;2023-06-10T09:11:58;12.43;;;8.23;;
22334;SDS011;11335;43.848;25.958;2023-06-10T09:14:44;14.27;;;9.70;;
22334;SDS011;11335;43.848;25.958;2023-06-10T09:17:30;12.95;;;9.10;;
22334;SDS011;11335;43.848;25.958;2023-06-10T09:20:16;13.82;;;8.30;;
22334;SDS011;11335;43.848;25.958;2023-06-10T09:23:02;12.05;;;8.32;;
22334;SDS011;11335;43.848;25.958;2023-06-10T09:25:53;13.50;;;7.22;;
22334;SDS011;11335;43.848;25.958;2023-06-10T09:28:43;14.35;;;8.57;;
22334;SDS011;11335;43.848;25.958;2023-06-10T09:31:34;16.00;;;9.10;;
22334;SDS011;11335;43.848;25.958;2023-06-10T09:34:24;13.15;;;8.60;;
22334;SDS011;11335;43.848;25.958;2023-06-10T09:37:11;15.02;;;8.38;;
22334;SDS011;11335;43.848;25.958;2023-06-10T09:40:05;13.65;;;8.45;;
22334;SDS011;11335;43.848;25.958;2023-06-10T09:42:53;13.00;;;8.15;;
22334;SDS011;11335;43.848;25.958;2023-06-10T09:45:40;11.80;;;7.90;;
22334;SDS011;11335;43.848;25.958;2023-06-10T09:48:28;15.80;;;8.27;;
22334;SDS011;11335;43.848;25.958;2023-06-10T09:51:14;10.73;;;7.93;;
22334;SDS011;11335;43.848;25.958;2023-06-10T09:54:02;12.18;;;7.07;;
22334;SDS011;11335;43.848;25.958;2023-06-10T09:56:49;12.70;;;7.60;;
22334;SDS011;11335;43.848;25.958;2023-06-10T09:59:37;13.25;;;7.38;;
22334;SDS011;11335;43.848;25.958;2023-06-10T10:02:23;11.68;;;6.75;;
22334;SDS011;11335;43.848;25.958;2023-06-10T10:05:09;13.40;;;7.18;;
22334;SDS011;11335;43.848;25.958;2023-06-10T10:07:55;13.02;;;6.60;;
22334;SDS011;11335;43.848;25.958;2023-06-10T10:10:41;11.57;;;6.95;;
22334;SDS011;11335;43.848;25.958;2023-06-10T10:13:27;12.43;;;6.00;;
22334;SDS011;11335;43.848;25.958;2023-06-10T10:16:17;10.57;;;5.72;;
22334;SDS011;11335;43.848;25.958;2023-06-10T10:19:07;10.23;;;5.78;;
22334;SDS011;11335;43.848;25.958;2023-06-10T10:22:01;7.88;;;4.93;;
22334;SDS011;11335;43.848;25.958;2023-06-10T10:24:52;7.13;;;5.55;;
22334;SDS011;11335;43.848;25.958;2023-06-10T10:27:48;8.75;;;5.75;;
22334;SDS011;11335;43.848;25.958;2023-06-10T10:30:40;9.18;;;5.80;;
22334;SDS011;11335;43.848;25.958;2023-06-10T10:33:33;11.18;;;5.13;;
22334;SDS011;11335;43.848;25.958;2023-06-10T10:36:26;7.60;;;5.25;;
22334;SDS011;11335;43.848;25.958;2023-06-10T10:39:13;6.80;;;5.28;;
22334;SDS011;11335;43.848;25.958;2023-06-10T10:41:59;8.75;;;4.85;;
22334;SDS011;11335;43.848;25.958;2023-06-10T10:44:48;9.00;;;5.13;;
22334;SDS011;11335;43.848;25.958;2023-06-10T10:47:35;12.35;;;5.22;;
22334;SDS011;11335;43.848;25.958;2023-06-10T10:50:23;16.77;;;5.53;;
22334;SDS011;11335;43.848;25.958;2023-06-10T10:53:09;9.18;;;4.78;;
22334;SDS011;11335;43.848;25.958;2023-06-10T10:56:14;7.65;;;4.70;;
22334;SDS011;11335;43.848;25.958;2023-06-10T10:59:03;7.45;;;4.70;;
22334;SDS011;11335;43.848;25.958;2023-06-10T11:01:50;8.55;;;5.00;;
22334;SDS011;11335;43.848;25.958;2023-06-10T11:04:36;7.70;;;4.70;;
22334;SDS011;11335;43.848;25.958;2023-06-10T11:07:22;11.95;;;4.80;;
22334;SDS011;11335;43.848;25.958;2023-06-10T11:10:10;7.78;;;4.57;;
22334;SDS011;11335;43.848;25.958;2023-06-10T11:12:57;7.50;;;4.40;;
22334;SDS011;11335;43.848;25.958;2023-06-10T11:15:44;7.18;;;4.07;;
22334;SDS011;11335;43.848;25.958;2023-06-10T11:18:38;7.30;;;4.15;;
22334;SDS011;11335;43.848;25.958;2023-06-10T11:21:25;5.38;;;4.10;;
22334;SDS011;11335;43.848;25.958;2023-06-10T11:24:11;6.13;;;3.45;;
22334;SDS011;11335;43.848;25.958;2023-06-10T11:27:17;19.08;;;4.22;;
22334;SDS011;11335;43.848;25.958;2023-06-10T11:32:51;7.72;;;3.72;;
22334;SDS011;11335;43.848;25.958;2023-06-10T11:35:38;8.20;;;4.15;;
22334;SDS011;11335;43.848;25.958;2023-06-10T11:38:25;7.28;;;4.28;;
22334;SDS011;11335;43.848;25.958;2023-06-10T11:41:12;8.88;;;4.13;;
22334;SDS011;11335;43.848;25.958;2023-06-10T11:44:03;8.82;;;4.35;;
22334;SDS011;11335;43.848;25.958;2023-06-10T11:46:52;6.80;;;4.28;;
22334;SDS011;11335;43.848;25.958;2023-06-10T11:49:38;10.75;;;3.90;;
22334;SDS011;11335;43.848;25.958;2023-06-10T11:52:27;7.78;;;4.47;;
22334;SDS011;11335;43.848;25.958;2023-06-10T11:55:14;6.30;;;4.32;;
22334;SDS011;11335;43.848;25.958;2023-06-10T11:57:59;8.52;;;5.25;;
22334;SDS011;11335;43.848;25.958;2023-06-10T12:03:46;9.88;;;5.20;;
22334;SDS011;11335;43.848;25.958;2023-06-10T12:06:39;11.73;;;4.72;;
22334;SDS011;11335;43.848;25.958;2023-06-10T12:09:32;8.18;;;4.40;;
22334;SDS011;11335;43.848;25.958;2023-06-10T12:12:18;6.53;;;4.75;;
22334;SDS011;11335;43.848;25.958;2023-06-10T12:15:05;7.82;;;4.80;;
22334;SDS011;11335;43.848;25.958;2023-06-10T12:17:51;8.60;;;4.70;;
22334;SDS011;11335;43.848;25.958;2023-06-10T12:20:37;7.80;;;6.00;;
22334;SDS011;11335;43.848;25.958;2023-06-10T12:23:23;11.35;;;6.07;;
22334;SDS011;11335;43.848;25.958;2023-06-10T12:26:09;7.75;;;6.20;;
22334;SDS011;11335;43.848;25.958;2023-06-10T12:28:54;10.40;;;5.95;;
22334;SDS011;11335;43.848;25.958;2023-06-10T12:32:00;8.60;;;6.75;;
22334;SDS011;11335;43.848;25.958;2023-06-10T12:34:48;12.95;;;6.75;;
22334;SDS011;11335;43.848;25.958;2023-06-10T12:37:34;9.23;;;6.45;;
22334;SDS011;11335;43.848;25.958;2023-06-10T12:40:25;15.27;;;7.13;;
22334;SDS011;11335;43.848;25.958;2023-06-10T12:43:12;16.27;;;7.13;;
22334;SDS011;11335;43.848;25.958;2023-06-10T12:46:08;15.95;;;6.88;;
22334;SDS011;11335;43.848;25.958;2023-06-10T12:48:57;12.82;;;6.28;;
22334;SDS011;11335;43.848;25.958;2023-06-10T12:51:43;21.05;;;6.53;;
22334;SDS011;11335;43.848;25.958;2023-06-10T12:54:29;9.02;;;6.20;;
22334;SDS011;11335;43.848;25.958;2023-06-10T12:57:15;9.65;;;6.15;;
22334;SDS011;11335;43.848;25.958;2023-06-10T13:00:02;11.90;;;6.40;;
22334;SDS011;11335;43.848;25.958;2023-06-10T13:02:49;17.48;;;6.55;;
22334;SDS011;11335;43.848;25.958;2023-06-10T13:05:36;13.80;;;6.05;;
22334;SDS011;11335;43.848;25.958;2023-06-10T13:08:23;12.93;;;6.22;;
22334;SDS011;11335;43.848;25.958;2023-06-10T13:11:10;11.45;;;5.90;;
22334;SDS011;11335;43.848;25.958;2023-06-10T13:13:55;13.38;;;6.47;;
22334;SDS011;11335;43.848;25.958;2023-06-10T13:16:41;10.30;;;6.07;;
22334;SDS011;11335;43.848;25.958;2023-06-10T13:19:30;14.38;;;6.32;;
22334;SDS011;11335;43.848;25.958;2023-06-10T13:22:15;9.57;;;6.28;;
22334;SDS011;11335;43.848;25.958;2023-06-10T13:25:05;8.98;;;5.95;;
22334;SDS011;11335;43.848;25.958;2023-06-10T13:27:54;10.45;;;6.05;;
22334;SDS011;11335;43.848;25.958;2023-06-10T13:30:40;8.55;;;5.53;;
22334;SDS011;11335;43.848;25.958;2023-06-10T13:33:26;8.73;;;5.90;;
22334;SDS011;11335;43.848;25.958;2023-06-10T13:36:12;12.93;;;6.10;;
22334;SDS011;11335;43.848;25.958;2023-06-10T13:38:58;8.85;;;6.43;;
22334;SDS011;11335;43.848;25.958;2023-06-10T13:41:43;7.22;;;5.63;;
22334;SDS011;11335;43.848;25.958;2023-06-10T13:44:29;11.45;;;5.90;;
22334;SDS011;11335;43.848;25.958;2023-06-10T13:47:18;10.45;;;6.00;;
22334;SDS011;11335;43.848;25.958;2023-06-10T13:50:04;13.20;;;5.80;;
22334;SDS011;11335;43.848;25.958;2023-06-10T13:52:51;12.02;;;5.53;;
22334;SDS011;11335;43.848;25.958;2023-06-10T13:55:36;8.48;;;5.65;;
22334;SDS011;11335;43.848;25.958;2023-06-10T13:58:22;9.88;;;5.60;;
22334;SDS011;11335;43.848;25.958;2023-06-10T14:01:08;11.43;;;5.97;;
22334;SDS011;11335;43.848;25.958;2023-06-10T14:03:54;12.77;;;5.93;;
22334;SDS011;11335;43.848;25.958;2023-06-10T14:06:40;10.02;;;5.50;;
22334;SDS011;11335;43.848;25.958;2023-06-10T14:09:26;10.63;;;5.97;;
22334;SDS011;11335;43.848;25.958;2023-06-10T14:12:12;11.90;;;5.90;;
22334;SDS011;11335;43.848;25.958;2023-06-10T14:14:58;12.27;;;6.40;;
22334;SDS011;11335;43.848;25.958;2023-06-10T14:17:43;10.68;;;5.47;;
22334;SDS011;11335;43.848;25.958;2023-06-10T14:20:29;8.40;;;5.45;;
22334;SDS011;11335;43.848;25.958;2023-06-10T14:23:16;12.68;;;6.05;;
22334;SDS011;11335;43.848;25.958;2023-06-10T14:26:02;9.70;;;5.63;;
22334;SDS011;11335;43.848;25.958;2023-06-10T14:28:48;10.30;;;6.00;;
22334;SDS011;11335;43.848;25.958;2023-06-10T14:31:34;9.25;;;6.20;;
22334;SDS011;11335;43.848;25.958;2023-06-10T14:34:20;8.50;;;6.18;;
22334;SDS011;11335;43.848;25.958;2023-06-10T14:37:08;11.75;;;6.53;;
22334;SDS011;11335;43.848;25.958;2023-06-10T14:39:54;8.45;;;6.05;;
22334;SDS011;11335;43.848;25.958;2023-06-10T14:42:40;9.70;;;5.55;;
22334;SDS011;11335;43.848;25.958;2023-06-10T14:45:25;8.65;;;5.70;;
22334;SDS011;11335;43.848;25.958;2023-06-10T14:48:11;11.05;;;6.20;;
22334;SDS011;11335;43.848;25.958;2023-06-10T14:50:58;8.35;;;6.32;;
22334;SDS011;11335;43.848;25.958;2023-06-10T14:53:43;9.95;;;5.95;;
22334;SDS011;11335;43.848;25.958;2023-06-10T14:56:29;8.00;;;5.65;;
22334;SDS011;11335;43.848;25.958;2023-06-10T14:59:15;11.88;;;5.50;;
22334;SDS011;11335;43.848;25.958;2023-06-10T15:02:00;9.85;;;5.88;;
22334;SDS011;11335;43.848;25.958;2023-06-10T15:04:46;9.40;;;5.82;;
22334;SDS011;11335;43.848;25.958;2023-06-10T15:07:32;9.32;;;5.78;;
22334;SDS011;11335;43.848;25.958;2023-06-10T15:10:18;10.82;;;6.20;;
22334;SDS011;11335;43.848;25.958;2023-06-10T15:13:04;8.90;;;6.00;;
22334;SDS011;11335;43.848;25.958;2023-06-10T15:15:49;10.38;;;6.18;;
22334;SDS011;11335;43.848;25.958;2023-06-10T15:18:35;9.82;;;5.72;;
22334;SDS011;11335;43.848;25.958;2023-06-10T15:21:21;9.25;;;5.72;;
22334;SDS011;11335;43.848;25.958;2023-06-10T15:24:07;14.10;;;5.70;;
22334;SDS011;11335;43.848;25.958;2023-06-10T15:26:52;12.35;;;6.05;;
22334;SDS011;11335;43.848;25.958;2023-06-10T15:29:38;10.52;;;6.03;;
22334;SDS011;11335;43.848;25.958;2023-06-10T15:32:24;11.23;;;6.07;;
22334;SDS011;11335;43.848;25.958;2023-06-10T15:35:10;13.63;;;6.57;;
22334;SDS011;11335;43.848;25.958;2023-06-10T15:37:57;9.55;;;6.05;;
22334;SDS011;11335;43.848;25.958;2023-06-10T15:40:42;8.02;;;5.70;;
22334;SDS011;11335;43.848;25.958;2023-06-10T15:43:28;13.05;;;6.20;;
22334;SDS011;11335;43.848;25.958;2023-06-10T15:46:14;9.23;;;5.78;;
22334;SDS011;11335;43.848;25.958;2023-06-10T15:49:00;9.18;;;6.13;;
22334;SDS011;11335;43.848;25.958;2023-06-10T15:51:45;8.40;;;5.70;;
22334;SDS011;11335;43.848;25.958;2023-06-10T15:54:31;7.85;;;5.88;;
22334;SDS011;11335;43.848;25.958;2023-06-10T15:57:17;8.65;;;6.07;;
22334;SDS011;11335;43.848;25.958;2023-06-10T16:00:04;13.25;;;6.20;;
22334;SDS011;11335;43.848;25.958;2023-06-10T16:02:51;12.52;;;6.35;;
22334;SDS011;11335;43.848;25.958;2023-06-10T16:05:37;11.00;;;6.38;;
22334;SDS011;11335;43.848;25.958;2023-06-10T16:08:23;8.90;;;5.78;;
22334;SDS011;11335;43.848;25.958;2023-06-10T16:11:08;12.00;;;5.97;;
22334;SDS011;11335;43.848;25.958;2023-06-10T16:13:55;9.75;;;6.22;;
22334;SDS011;11335;43.848;25.958;2023-06-10T16:16:41;7.97;;;5.93;;
22334;SDS011;11335;43.848;25.958;2023-06-10T16:19:26;10.45;;;5.95;;
22334;SDS011;11335;43.848;25.958;2023-06-10T16:22:12;11.75;;;6.13;;
22334;SDS011;11335;43.848;25.958;2023-06-10T16:24:58;8.98;;;6.20;;
22334;SDS011;11335;43.848;25.958;2023-06-10T16:27:46;10.90;;;6.63;;
22334;SDS011;11335;43.848;25.958;2023-06-10T16:30:32;12.05;;;6.35;;
22334;SDS011;11335;43.848;25.958;2023-06-10T16:33:18;10.13;;;6.63;;
22334;SDS011;11335;43.848;25.958;2023-06-10T16:36:03;15.38;;;6.60;;